Magnetawan, Canada
Current Conditions -  °F | °C
As of 5:00 AM on Sunday 25 Jan 2015 (Local Time) from CYYB Reporting Station
Clear Clear  
Wind Chill: -23°   Ceiling: Unl
Heat Index: -6°   Visibility: 9mi
Dew Point: -9°   Wind: 10mph
Humidity: 84%   Direction: 330°NNW
Pressure: 29.73"   Gusts: NA
Location:  45.67°N, 79.63°W
Report Text: CYYB 251000Z AUTO 33009KT 9SM CLR M21/M23 A2973 RMK SLP097
Loading
Personal Weather Stations






























Interactive Weather Map New forecast layout! Learn more

10-Day Weather Forecast

Advertisements
Track Severe Weather on mobile